Flight Track Log - Related Links

Times and Time Zones

All times are in EST time to prevent confusion due to time zone crossing. See the EJA749 flight status page for this flight to view local times or setup timezone preferences in your user account.

Time Position Orientation Groundspeed Altitude Reporting Facility
EST Latitude Longitude Course Direction KTS MPH feet Rate Location/Type
Thu 11:56:16 AM 42.3811 -87.9253 208° Southwest 197 227 38,000  Level Chicago Center
Thu 11:57:18 AM 42.3317 -87.9606 208° Southwest 235 270 3,600 -15,484 Descending Chicago Center
Thu 11:58:20 AM 42.2614 -87.8958 146° Southeast 266 306 6,000 2,256 Climbing Chicago Center
Thu 11:59:23 AM 42.1928 -87.8381 148° Southeast 288 331 8,300 2,400 Climbing Chicago Center
Thu 12:00:25 PM 42.1164 -87.8106 165° South 292 336 11,000 2,323 Climbing Chicago Center
Thu 12:01:27 PM 42.0403 -87.8072 178° South 275 316 13,100 2,129 Climbing Chicago Center
Thu 12:02:29 PM 41.9547 -87.7958 174° South 313 360 15,400 2,371 Climbing Chicago Center
Thu 12:03:31 PM 41.8428 -87.7706 170° South 376 433 18,000 2,855 Climbing Chicago Center
Thu 12:04:33 PM 41.7222 -87.7464 171° South 386 444 21,300 2,565 Climbing Chicago Center
Thu 12:05:35 PM 41.6100 -87.7225 171° South 400 460 23,300 1,984 Climbing Chicago Center
Thu 12:06:37 PM 41.4919 -87.6997 172° South 419 482 25,400 1,984 Climbing Chicago Center
Thu 12:07:39 PM 41.3731 -87.6753 171° South 426 490 27,400 1,839 Climbing Chicago Center
Thu 12:08:41 PM 41.2525 -87.6506 171° South 432 497 29,200 1,597 Climbing Chicago Center
Thu 12:09:43 PM 41.1314 -87.6269 172° South 438 504 30,700 1,452 Climbing Chicago Center
Thu 12:10:45 PM 41.0086 -87.6022 171° South 443 510 32,200 1,452 Climbing Chicago Center
Thu 12:11:47 PM 40.8861 -87.5761 171° South 446 513 33,700 1,548 Climbing Chicago Center
Thu 12:12:49 PM 40.7383 -87.5469 171° South 448 516 35,400 1,306 Climbing Chicago Center
Thu 12:13:51 PM 40.6142 -87.5211 171° South 450 518 36,400 968 Climbing Chicago Center
Thu 12:14:53 PM 40.4867 -87.4969 172° South 461 531 37,400 774 Climbing Chicago Center
Thu 12:15:55 PM 40.3589 -87.4722 172° South 464 534 38,000 290 Climbing Chicago Center
Thu 12:16:57 PM 40.2283 -87.4444 171° South 473 544 38,000  Level Chicago Center
Thu 12:17:59 PM 40.0717 -87.4150 172° South 474 545 38,000  Level Chicago Center
Thu 12:19:01 PM 39.9417 -87.3894 171° South 474 545 38,000  Level Chicago Center
Thu 12:20:03 PM 39.8117 -87.3653 172° South 472 543 38,000  Level Chicago Center
Thu 12:21:05 PM 39.6819 -87.3392 171° South 471 542 38,000  Level Chicago Center
Thu 12:22:08 PM 39.5531 -87.3122 171° South 469 540 38,000  Level Chicago Center
Thu 12:23:10 PM 39.4236 -87.2886 172° South 470 541 38,000  Level Chicago Center
Thu 12:24:12 PM 39.2758 -87.2611 172° South 469 540 38,000  Level Chicago Center
Thu 12:25:14 PM 39.1436 -87.2350 171° South 479 551 38,000  Level Chicago Center
Thu 12:26:40 PM 38.9594 -87.2017 172° South 472 543 38,000  Level Indianapolis Center
Thu 12:27:42 PM 38.8286 -87.1756 171° South 473 544 38,000  Level Indianapolis Center
Thu 12:28:44 PM 38.6969 -87.1511 172° South 476 548 38,000  Level Indianapolis Center
Thu 12:29:46 PM 38.5653 -87.1258 171° South 476 548 38,000 97 Level Indianapolis Center
Thu 12:30:48 PM 38.4047 -87.0956 172° South 475 547 38,200 435 Climbing Indianapolis Center
Thu 12:31:50 PM 38.2736 -87.0756 173° South 472 543 38,900 387 Climbing Indianapolis Center
Thu 12:32:52 PM 38.1431 -87.0506 171° South 470 541 39,000 48 Climbing Indianapolis Center
Thu 12:33:54 PM 38.0053 -87.0222 171° South 467 537 39,000  Level Indianapolis Center
Thu 12:34:57 PM 37.8758 -86.9992 172° South 468 539 39,000  Level Indianapolis Center
Thu 12:35:59 PM 37.7469 -86.9756 172° South 467 537 39,000  Level Indianapolis Center
Thu 12:37:01 PM 37.6183 -86.9519 172° South 466 536 39,000  Level Indianapolis Center
Thu 12:38:03 PM 37.4942 -86.9311 172° South 469 540 39,000  Level Indianapolis Center
Thu 12:39:05 PM 37.3419 -86.9028 172° South 470 541 39,000  Level Indianapolis Center
Thu 12:40:07 PM 37.2108 -86.8792 172° South 470 541 39,000  Level Indianapolis Center
Thu 12:41:09 PM 37.0797 -86.8544 171° South 471 542 39,000  Level Indianapolis Center
Thu 12:42:11 PM 36.9483 -86.8297 171° South 472 543 39,000  Level Indianapolis Center
Thu 12:43:13 PM 36.8164 -86.8069 172° South 472 543 39,000  Level Indianapolis Center
Thu 12:44:15 PM 36.6847 -86.7817 171° South 474 545 39,000  Level Indianapolis Center
Thu 12:45:17 PM 36.5528 -86.7575 172° South 472 543 39,000  Level Indianapolis Center
Thu 12:46:19 PM 36.4192 -86.7328 172° South 474 545 39,000  Level Indianapolis Center
Thu 12:47:21 PM 36.2825 -86.7106 173° South 474 545 39,000  Level Indianapolis Center
Thu 12:48:23 PM 36.1489 -86.6872 172° South 473 544 39,000  Level Indianapolis Center
Thu 12:49:26 PM 35.9994 -86.6172 159° South 486 559 39,000  Level Indianapolis Center
Thu 12:50:52 PM 35.8300 -86.5344 158° South 487 560 39,000  Level Indianapolis Center
Thu 12:51:54 PM 35.7039 -86.4722 158° South 484 557 39,000  Level Indianapolis Center
Thu 12:52:57 PM 35.5778 -86.4089 158° South 484 557 39,000  Level Indianapolis Center
Thu 12:54:02 PM 35.4297 -86.3375 159° South 485 558 39,000  Level Memphis Center
Thu 12:55:04 PM 35.3033 -86.2747 158° South 485 558 39,000  Level Memphis Center
Thu 12:56:06 PM 35.1772 -86.2119 158° South 485 558 39,000  Level Memphis Center
Thu 12:57:08 PM 35.0539 -86.1539 159° South 485 558 39,000  Level Memphis Center
Thu 12:58:10 PM 34.9033 -86.0806 158° South 486 559 39,000  Level Memphis Center
Thu 12:59:13 PM 34.7781 -86.0200 158° South 487 560 39,000  Level Memphis Center
Thu 01:00:15 PM 34.6519 -85.9597 159° South 487 560 39,000  Level Memphis Center
Thu 01:01:17 PM 34.5211 -85.8969 158° South 488 562 39,000  Level Atlanta Center
Thu 01:02:17 PM 34.3947 -85.8361 158° South 488 562 39,000  Level Atlanta Center
Thu 01:03:17 PM 34.2600 -85.7756 160° South 480 552 39,000  Level Atlanta Center
Thu 01:04:17 PM 34.1336 -85.7153 158° South 480 552 39,000  Level Atlanta Center
Thu 01:05:18 PM 34.0008 -85.6525 159° South 494 568 39,000  Level Atlanta Center
Thu 01:06:17 PM 33.8722 -85.5950 160° South 494 568 39,000  Level Atlanta Center
Thu 01:07:17 PM 33.7433 -85.5353 159° South 494 568 39,000  Level Atlanta Center
Thu 01:08:17 PM 33.6147 -85.4731 158° South 494 568 39,000  Level Atlanta Center
Thu 01:09:17 PM 33.4861 -85.4136 159° South 500 575 39,000  Level Atlanta Center
Thu 01:10:17 PM 33.3553 -85.3544 159° South 500 575 39,000  Level Atlanta Center
Thu 01:11:17 PM 33.2264 -85.2928 158° South 500 575 39,000  Level Atlanta Center
Thu 01:12:17 PM 33.0956 -85.2339 159° South 505 581 39,000  Level Atlanta Center
Thu 01:13:17 PM 32.9833 -85.1853 160° South 505 581 39,000  Level Atlanta Center
Thu 01:14:17 PM 32.8333 -85.1414 166° South 496 571 39,000  Level Atlanta Center
Thu 01:15:17 PM 32.7147 -85.0906 160° South 491 565 39,000  Level Atlanta Center
Thu 01:16:17 PM 32.5878 -85.0472 164° South 484 557 39,000  Level Atlanta Center
Thu 01:17:17 PM 32.4525 -85.0014 164° South 490 564 39,000  Level Atlanta Center
Thu 01:18:17 PM 32.3256 -84.9581 164° South 490 564 39,000  Level Atlanta Center
Thu 01:19:17 PM 32.1964 -84.9150 164° South 490 564 39,000  Level Atlanta Center
Thu 01:21:22 PM 31.9306 -84.8264 164° South 479 551 39,000  Level Jacksonville Center
Thu 01:22:22 PM 31.7997 -84.7822 164° South 479 551 39,000  Level Jacksonville Center
Thu 01:23:22 PM 31.6708 -84.7406 165° South 479 551 39,000  Level Jacksonville Center
Thu 01:24:22 PM 31.5419 -84.6989 165° South 479 551 39,000  Level Jacksonville Center
Thu 01:25:22 PM 31.4131 -84.6550 164° South 479 551 39,000  Level Jacksonville Center
Thu 01:26:22 PM 31.2864 -84.6139 164° South 484 557 39,000  Level Jacksonville Center
Thu 01:27:22 PM 31.1533 -84.5675 163° South 478 550 39,000  Level Jacksonville Center
Thu 01:28:22 PM 31.0244 -84.5267 165° South 483 556 39,000  Level Jacksonville Center
Thu 01:29:22 PM 30.8933 -84.4856 165° South 483 556 39,000  Level Jacksonville Center
Thu 01:30:22 PM 30.7625 -84.4422 164° South 488 562 39,000  Level Jacksonville Center
Thu 01:31:22 PM 30.6333 -84.3992 164° South 488 562 39,000  Level Jacksonville Center
Thu 01:32:22 PM 30.5025 -84.3392 158° South 493 567 39,000  Level Jacksonville Center
Thu 01:33:22 PM 30.3761 -84.2578 151° Southeast 508 585 39,000  Level Jacksonville Center
Thu 01:34:22 PM 30.2433 -84.1742 151° Southeast 508 585 39,000  Level Jacksonville Center
Thu 01:35:22 PM 30.1189 -84.0908 150° Southeast 508 585 39,000  Level Jacksonville Center
Thu 01:36:22 PM 29.9964 -84.0125 151° Southeast 508 585 39,000  Level Jacksonville Center
Thu 01:37:22 PM 29.8739 -83.9322 150° Southeast 508 585 39,000  Level Jacksonville Center
Thu 01:38:22 PM 29.7494 -83.8519 151° Southeast 508 585 39,000  Level Jacksonville Center
Thu 01:39:22 PM 29.6225 -83.7717 151° Southeast 508 585 39,000  Level Jacksonville Center
Thu 01:40:22 PM 29.4978 -83.6894 150° Southeast 513 590 39,000  Level Jacksonville Center
Thu 01:41:22 PM 29.3708 -83.6075 151° Southeast 518 596 39,000  Level Jacksonville Center
Thu 01:42:22 PM 29.2442 -83.5281 151° Southeast 518 596 39,000  Level Jacksonville Center
Thu 01:43:22 PM 29.1192 -83.4489 151° Southeast 518 596 39,000  Level Jacksonville Center
Thu 01:44:22 PM 29.0047 -83.3744 150° Southeast 528 608 39,000 -50 Level Jacksonville Center
Thu 01:45:22 PM 28.8778 -83.2956 151° Southeast 523 602 38,900 -550 Descending Jacksonville Center
Thu 01:46:22 PM 28.7525 -83.2194 152° Southeast 523 602 37,900 -1,150 Descending Jacksonville Center
Thu 01:47:22 PM 28.6297 -83.1408 151° Southeast 518 596 36,600 -1,550 Descending Jacksonville Center
Thu 01:48:22 PM 28.5086 -83.0650 151° Southeast 512 589 34,800 -1,850 Descending Jacksonville Center
Thu 01:49:22 PM 28.3942 -82.9894 150° Southeast 502 578 32,900 -1,978 Descending Jacksonville Center
Thu 01:51:27 PM 28.1478 -82.8650 156° South 456 525 28,700 -1,914 Descending Miami Center
Thu 01:52:27 PM 28.0308 -82.8703 182° South 412 474 27,000 -1,050 Descending Miami Center
Thu 01:53:27 PM 27.9092 -82.8850 186° South 430 495 26,600 -1,400 Descending Miami Center
Thu 01:54:27 PM 27.7878 -82.8975 185° South 446 513 24,200 -2,550 Descending Miami Center
Thu 01:55:27 PM 27.6683 -82.9122 186° South 446 513 21,500 -2,500 Descending Miami Center
Thu 01:56:27 PM 27.5500 -82.8989 174° South 429 494 19,200 -2,204 Descending Miami Center
Thu 01:57:05 PM 27.5000 -82.8333 131° Southeast 423 487 17,900 -1,837 Descending Tampa TRACON
Thu 01:58:05 PM 27.4000 -82.7500 143° Southeast 410 472 16,200 -1,900 Descending Tampa TRACON
Thu 01:59:05 PM 27.3167 -82.6833 145° Southeast 383 441 14,100 -2,100 Descending Tampa TRACON
Thu 02:00:05 PM 27.2500 -82.6167 138° Southeast 343 395 12,000 -2,100 Descending Tampa TRACON
Thu 02:01:05 PM 27.1667 -82.5500 145° Southeast 303 349 9,900 -2,113 Descending Tampa TRACON
Thu 02:02:27 PM 27.0994 -82.4814 138° Southeast 299 344 7,000 -2,070 Descending Miami Center
Thu 02:03:27 PM 27.0411 -82.4250 139° Southeast 282 325 5,000 -1,050 Descending Miami Center
Thu 02:04:27 PM 26.9806 -82.3683 140° Southeast 267 307 4,900 -650 Descending Miami Center
Thu 02:05:27 PM 26.9342 -82.3289 143° Southeast 243 280 3,700 -1,250 Descending Miami Center
Thu 02:06:27 PM 26.8958 -82.2922 140° Southeast 199 229 2,400 -850 Descending Miami Center
Thu 02:07:27 PM 26.8675 -82.2653 140° Southeast 165 190 2,000 -250 Descending Miami Center
Thu 02:08:27 PM 26.8289 -82.2403 150° Southeast 157 181 1,900 -450 Descending Miami Center
Thu 02:09:27 PM 26.8022 -82.2808 234° Southwest 147 169 1,100 -750 Descending Miami Center
Thu 02:10:27 PM 26.8336 -82.2778 North 50 58 400 5,950 Descending Miami Center
Thu 02:11:27 PM 26.8375 -82.2919 287° West 50 58 13,000 12,600 Climbing Miami Center
Thu 02:13:00 PM 26.8500 -82.2500 17° North  Level FlightAware Approximate
Thu 02:20:00 PM 26.8537 -82.2526 17° North  Level Estimated
Thu 02:21:00 PM 26.8500 -82.2500 17° North  Level FlightAware Approximate
Thu 02:22:00 PM 26.8537 -82.2526 17° North  Level Estimated
Thu 02:23:00 PM 26.8500 -82.2500 17° North  Level FlightAware Approximate
Thu 02:24:00 PM 26.8537 -82.2526 17° North  Level Estimated

Login

Don't have an account? Register now (free) for customized features, flight alerts, and more!